SWR457 LEMD-LSZH
Flight info
| Callsign | SWR457 |
|---|---|
| Flight time | 1h 36m |
| Altitude | 38000 |
| Route | PINAR N870 SEGRE DCT YAKXU DCT RONNY DCT TOPTU DCT TOU DCT GAI DCT MEN DCT NINUN DCT LATAM DCT ETREK DCT LTP DCT SOPLO DCT OMASI DCT KINNI DCT LAMUR DCT GUDAX Z57 DOPIL |
| Aircraft | B77W/H-SDE1E2E3FGHIJ2J3J4J5M1RWXY/LB1D1 |
Departure
| Time | 2026-05-07 12:53 |
|---|---|
| Airport | Adolfo Suárez Madrid–Barajas Airport (LEMD) |
Arrival
| Time | 2026-05-07 14:29 |
|---|---|
| Airport | Zürich Airport (LSZH) |
| Time | Latitude | Longitude | Altitude | Speed | Heading |
|---|---|---|---|---|---|
| 2026-05-07 12:31 | 40.48993 | -3.56880 | 1985 ft | 0 kts | 88° |
| 2026-05-07 12:47 | 40.48992 | -3.56906 | 1988 ft | 4 kts | 83° |
| 2026-05-07 12:47 | 40.48987 | -3.56941 | 1984 ft | 4 kts | 73° |
| 2026-05-07 12:47 | 40.48977 | -3.56973 | 1985 ft | 4 kts | 59° |
| 2026-05-07 12:47 | 40.48961 | -3.57000 | 1984 ft | 4 kts | 28° |
| 2026-05-07 12:48 | 40.48947 | -3.57006 | 1983 ft | 0 kts | 360° |
| 2026-05-07 12:50 | 40.48948 | -3.57006 | 1983 ft | 1 kts | 360° |
| 2026-05-07 12:51 | 40.48974 | -3.57007 | 1984 ft | 7 kts | 359° |
| 2026-05-07 12:51 | 40.49033 | -3.57034 | 1989 ft | 12 kts | 319° |
| 2026-05-07 12:51 | 40.49056 | -3.57153 | 1988 ft | 16 kts | 270° |
| 2026-05-07 12:51 | 40.49061 | -3.57297 | 1987 ft | 16 kts | 287° |
| 2026-05-07 12:52 | 40.49129 | -3.57408 | 1989 ft | 16 kts | 315° |
| 2026-05-07 12:52 | 40.49230 | -3.57461 | 1986 ft | 21 kts | 356° |
| 2026-05-07 12:52 | 40.49685 | -3.57464 | 1989 ft | 122 kts | 0° |
| 2026-05-07 12:52 | 40.50889 | -3.57470 | 2135 ft | 218 kts | 1° |
| 2026-05-07 12:53 | 40.52512 | -3.57433 | 3591 ft | 223 kts | 3° |
| 2026-05-07 12:53 | 40.53800 | -3.57370 | 5156 ft | 202 kts | 1° |
| 2026-05-07 12:53 | 40.55218 | -3.57309 | 5766 ft | 208 kts | 14° |
| 2026-05-07 12:53 | 40.56656 | -3.56724 | 5979 ft | 231 kts | 20° |
| 2026-05-07 12:54 | 40.58296 | -3.56102 | 6240 ft | 259 kts | 15° |
| 2026-05-07 12:54 | 40.60064 | -3.55502 | 6663 ft | 278 kts | 16° |
| 2026-05-07 12:54 | 40.61983 | -3.54828 | 7323 ft | 289 kts | 16° |
| 2026-05-07 12:54 | 40.63963 | -3.54164 | 8133 ft | 293 kts | 10° |
| 2026-05-07 12:55 | 40.65804 | -3.53902 | 8950 ft | 294 kts | 2° |
| 2026-05-07 12:55 | 40.67875 | -3.53766 | 9852 ft | 298 kts | 1° |
| 2026-05-07 12:55 | 40.69909 | -3.53294 | 10408 ft | 308 kts | 24° |
| 2026-05-07 12:55 | 40.71417 | -3.51930 | 10614 ft | 329 kts | 49° |
| 2026-05-07 12:56 | 40.72787 | -3.49406 | 10815 ft | 351 kts | 59° |
| 2026-05-07 12:56 | 40.74156 | -3.46592 | 11291 ft | 370 kts | 58° |
| 2026-05-07 12:56 | 40.75397 | -3.44086 | 12034 ft | 378 kts | 58° |
| 2026-05-07 12:56 | 40.76925 | -3.41061 | 13140 ft | 384 kts | 57° |
| 2026-05-07 12:57 | 40.78320 | -3.38335 | 14100 ft | 390 kts | 57° |
| 2026-05-07 12:57 | 40.79841 | -3.35387 | 15063 ft | 394 kts | 57° |
| 2026-05-07 12:57 | 40.81398 | -3.32380 | 16066 ft | 399 kts | 57° |
| 2026-05-07 12:57 | 40.82446 | -3.30356 | 16725 ft | 402 kts | 57° |
| 2026-05-07 12:58 | 40.83966 | -3.27415 | 17683 ft | 407 kts | 57° |
| 2026-05-07 12:58 | 40.85491 | -3.24234 | 18579 ft | 410 kts | 65° |
| 2026-05-07 12:58 | 40.86404 | -3.20703 | 19246 ft | 412 kts | 78° |
| 2026-05-07 12:58 | 40.87072 | -3.16972 | 19982 ft | 420 kts | 79° |
| 2026-05-07 12:59 | 40.87588 | -3.14059 | 20624 ft | 423 kts | 79° |
| 2026-05-07 12:59 | 40.88280 | -3.10246 | 21494 ft | 427 kts | 78° |
| 2026-05-07 12:59 | 40.88996 | -3.06415 | 22318 ft | 432 kts | 78° |
| 2026-05-07 12:59 | 40.89732 | -3.02572 | 23076 ft | 439 kts | 78° |
| 2026-05-07 13:00 | 40.90502 | -2.98602 | 23764 ft | 445 kts | 78° |
| 2026-05-07 13:00 | 40.91185 | -2.95098 | 24348 ft | 449 kts | 78° |
| 2026-05-07 13:00 | 40.91997 | -2.90947 | 25069 ft | 452 kts | 78° |
| 2026-05-07 13:00 | 40.92729 | -2.87193 | 25681 ft | 456 kts | 78° |
| 2026-05-07 13:01 | 40.93528 | -2.83089 | 26317 ft | 460 kts | 78° |
| 2026-05-07 13:01 | 40.94320 | -2.79001 | 26934 ft | 464 kts | 79° |
| 2026-05-07 13:01 | 40.95087 | -2.75039 | 27500 ft | 468 kts | 79° |
| 2026-05-07 13:01 | 40.95892 | -2.70866 | 28098 ft | 471 kts | 79° |
| 2026-05-07 13:02 | 40.96597 | -2.67205 | 28605 ft | 475 kts | 79° |
| 2026-05-07 13:02 | 40.97471 | -2.62653 | 28976 ft | 484 kts | 78° |
| 2026-05-07 13:02 | 40.98296 | -2.58352 | 29407 ft | 490 kts | 78° |
| 2026-05-07 13:02 | 40.99147 | -2.53955 | 29947 ft | 493 kts | 78° |
| 2026-05-07 13:03 | 41.00005 | -2.49531 | 30410 ft | 495 kts | 78° |
| 2026-05-07 13:03 | 41.00855 | -2.45138 | 30821 ft | 496 kts | 78° |
| 2026-05-07 13:03 | 41.02007 | -2.40787 | 31190 ft | 503 kts | 66° |
| 2026-05-07 13:03 | 41.03823 | -2.36795 | 31711 ft | 505 kts | 54° |
| 2026-05-07 13:04 | 41.06125 | -2.33305 | 32271 ft | 505 kts | 43° |
| 2026-05-07 13:04 | 41.08841 | -2.30334 | 32801 ft | 503 kts | 38° |
| 2026-05-07 13:04 | 41.11581 | -2.27514 | 33164 ft | 506 kts | 38° |
| 2026-05-07 13:04 | 41.14384 | -2.24642 | 33438 ft | 510 kts | 39° |
| 2026-05-07 13:05 | 41.17186 | -2.21746 | 33979 ft | 508 kts | 39° |
| 2026-05-07 13:05 | 41.19928 | -2.18879 | 34467 ft | 505 kts | 39° |
| 2026-05-07 13:05 | 41.22702 | -2.15950 | 34837 ft | 506 kts | 39° |
| 2026-05-07 13:05 | 41.25464 | -2.13010 | 35167 ft | 507 kts | 39° |
| 2026-05-07 13:06 | 41.28180 | -2.10107 | 35503 ft | 508 kts | 39° |
| 2026-05-07 13:06 | 41.30941 | -2.07149 | 35873 ft | 508 kts | 39° |
| 2026-05-07 13:06 | 41.33705 | -2.04186 | 36240 ft | 508 kts | 39° |
| 2026-05-07 13:06 | 41.36435 | -2.01258 | 36558 ft | 509 kts | 39° |
| 2026-05-07 13:07 | 41.39205 | -1.98285 | 36881 ft | 509 kts | 39° |
| 2026-05-07 13:07 | 41.41973 | -1.95311 | 37238 ft | 509 kts | 39° |
| 2026-05-07 13:07 | 41.44709 | -1.92371 | 37559 ft | 509 kts | 39° |
| 2026-05-07 13:07 | 41.47483 | -1.89386 | 37840 ft | 510 kts | 39° |
| 2026-05-07 13:08 | 41.53046 | -1.83389 | 37934 ft | 516 kts | 39° |
| 2026-05-07 13:08 | 41.58590 | -1.77400 | 37935 ft | 509 kts | 39° |
| 2026-05-07 13:09 | 41.64052 | -1.71485 | 37933 ft | 506 kts | 39° |
| 2026-05-07 13:09 | 41.69496 | -1.65577 | 37937 ft | 505 kts | 39° |
| 2026-05-07 13:10 | 41.74960 | -1.59634 | 37933 ft | 506 kts | 39° |
| 2026-05-07 13:10 | 41.80292 | -1.53819 | 37939 ft | 507 kts | 39° |
| 2026-05-07 13:11 | 41.85744 | -1.47862 | 37926 ft | 508 kts | 39° |
| 2026-05-07 13:11 | 41.91253 | -1.41829 | 37931 ft | 509 kts | 39° |
| 2026-05-07 13:12 | 41.96736 | -1.35811 | 37936 ft | 511 kts | 39° |
| 2026-05-07 13:12 | 42.02225 | -1.29771 | 37941 ft | 512 kts | 39° |
| 2026-05-07 13:13 | 42.07529 | -1.23922 | 37931 ft | 512 kts | 39° |
| 2026-05-07 13:13 | 42.13021 | -1.17850 | 37937 ft | 512 kts | 39° |
| 2026-05-07 13:14 | 42.18496 | -1.11772 | 37922 ft | 512 kts | 40° |
| 2026-05-07 13:14 | 42.23961 | -1.05688 | 37935 ft | 510 kts | 39° |
| 2026-05-07 13:15 | 42.29397 | -0.99625 | 37932 ft | 508 kts | 40° |
| 2026-05-07 13:15 | 42.34823 | -0.93558 | 37934 ft | 506 kts | 40° |
| 2026-05-07 13:16 | 42.40234 | -0.87493 | 37945 ft | 505 kts | 40° |
| 2026-05-07 13:16 | 42.45156 | -0.80787 | 37941 ft | 502 kts | 52° |
| 2026-05-07 13:17 | 42.49388 | -0.73295 | 37943 ft | 501 kts | 54° |
| 2026-05-07 13:17 | 42.53601 | -0.65743 | 37950 ft | 501 kts | 53° |
| 2026-05-07 13:18 | 42.57840 | -0.58228 | 37959 ft | 502 kts | 53° |
| 2026-05-07 13:18 | 42.62104 | -0.50700 | 37967 ft | 503 kts | 53° |
| 2026-05-07 13:19 | 42.66358 | -0.43169 | 37960 ft | 503 kts | 53° |
| 2026-05-07 13:19 | 42.70600 | -0.35635 | 37959 ft | 504 kts | 53° |
| 2026-05-07 13:20 | 42.74845 | -0.28074 | 37969 ft | 504 kts | 53° |
| 2026-05-07 13:20 | 42.79108 | -0.20464 | 37964 ft | 504 kts | 53° |
| 2026-05-07 13:21 | 42.83408 | -0.13051 | 37972 ft | 503 kts | 51° |
| 2026-05-07 13:21 | 42.87838 | -0.05772 | 37956 ft | 504 kts | 51° |
| 2026-05-07 13:22 | 42.92278 | 0.01541 | 37944 ft | 503 kts | 51° |
| 2026-05-07 13:22 | 42.96680 | 0.08878 | 37947 ft | 502 kts | 52° |
| 2026-05-07 13:23 | 43.01100 | 0.16292 | 37956 ft | 502 kts | 52° |
| 2026-05-07 13:23 | 43.05506 | 0.23704 | 37963 ft | 502 kts | 52° |
| 2026-05-07 13:24 | 43.09911 | 0.31129 | 37965 ft | 503 kts | 52° |
| 2026-05-07 13:24 | 43.13558 | 0.37289 | 37964 ft | 503 kts | 52° |
| 2026-05-07 13:25 | 43.18624 | 0.45867 | 37966 ft | 503 kts | 52° |
| 2026-05-07 13:25 | 43.23022 | 0.53334 | 37977 ft | 504 kts | 52° |
| 2026-05-07 13:26 | 43.27416 | 0.60813 | 37975 ft | 504 kts | 52° |
| 2026-05-07 13:26 | 43.31728 | 0.68173 | 37973 ft | 504 kts | 52° |
| 2026-05-07 13:27 | 43.35384 | 0.74426 | 37973 ft | 504 kts | 52° |
| 2026-05-07 13:27 | 43.39784 | 0.81971 | 37966 ft | 504 kts | 52° |
| 2026-05-07 13:28 | 43.44154 | 0.89483 | 37995 ft | 504 kts | 52° |
| 2026-05-07 13:28 | 43.48501 | 0.96976 | 37980 ft | 504 kts | 52° |
| 2026-05-07 13:29 | 43.52806 | 1.04413 | 37978 ft | 504 kts | 52° |
| 2026-05-07 13:29 | 43.57017 | 1.11708 | 37978 ft | 504 kts | 52° |
| 2026-05-07 13:30 | 43.61377 | 1.19281 | 37982 ft | 504 kts | 52° |
| 2026-05-07 13:30 | 43.65709 | 1.26824 | 38001 ft | 504 kts | 52° |
| 2026-05-07 13:31 | 43.69932 | 1.34276 | 37993 ft | 504 kts | 53° |
| 2026-05-07 13:31 | 43.74094 | 1.42088 | 37996 ft | 504 kts | 54° |
| 2026-05-07 13:32 | 43.78183 | 1.49855 | 37991 ft | 505 kts | 54° |
| 2026-05-07 13:32 | 43.82321 | 1.57666 | 37997 ft | 505 kts | 54° |
| 2026-05-07 13:33 | 43.86402 | 1.65358 | 37993 ft | 505 kts | 54° |
| 2026-05-07 13:33 | 43.90474 | 1.73053 | 37992 ft | 506 kts | 54° |
| 2026-05-07 13:34 | 43.96459 | 1.84430 | 37995 ft | 505 kts | 55° |
| 2026-05-07 13:35 | 44.00332 | 1.92143 | 37983 ft | 505 kts | 56° |
| 2026-05-07 13:35 | 44.04306 | 2.00210 | 38006 ft | 505 kts | 56° |
| 2026-05-07 13:36 | 44.08025 | 2.07745 | 37992 ft | 505 kts | 56° |
| 2026-05-07 13:36 | 44.11990 | 2.15761 | 38000 ft | 504 kts | 56° |
| 2026-05-07 13:37 | 44.15935 | 2.23746 | 37999 ft | 504 kts | 56° |
| 2026-05-07 13:37 | 44.19742 | 2.31474 | 37997 ft | 504 kts | 56° |
| 2026-05-07 13:38 | 44.23624 | 2.39379 | 38007 ft | 504 kts | 56° |
| 2026-05-07 13:38 | 44.27460 | 2.47211 | 37998 ft | 504 kts | 56° |
| 2026-05-07 13:39 | 44.31430 | 2.55340 | 37993 ft | 504 kts | 56° |
| 2026-05-07 13:39 | 44.35266 | 2.63215 | 37995 ft | 504 kts | 56° |
| 2026-05-07 13:40 | 44.39196 | 2.71305 | 37994 ft | 504 kts | 56° |
| 2026-05-07 13:40 | 44.43060 | 2.79283 | 37999 ft | 504 kts | 56° |
| 2026-05-07 13:41 | 44.46979 | 2.87398 | 37995 ft | 505 kts | 56° |
| 2026-05-07 13:41 | 44.50814 | 2.95359 | 37986 ft | 506 kts | 56° |
| 2026-05-07 13:42 | 44.54547 | 3.03132 | 37988 ft | 506 kts | 56° |
| 2026-05-07 13:42 | 44.58473 | 3.11325 | 37988 ft | 507 kts | 56° |
| 2026-05-07 13:43 | 44.62238 | 3.19572 | 37978 ft | 507 kts | 60° |
| 2026-05-07 13:43 | 44.65691 | 3.28185 | 37982 ft | 507 kts | 61° |
| 2026-05-07 13:44 | 44.69130 | 3.36865 | 37974 ft | 507 kts | 61° |
| 2026-05-07 13:44 | 44.72576 | 3.45481 | 37984 ft | 507 kts | 61° |
| 2026-05-07 13:45 | 44.76045 | 3.54148 | 37977 ft | 507 kts | 61° |
| 2026-05-07 13:45 | 44.79487 | 3.62805 | 37977 ft | 507 kts | 61° |
| 2026-05-07 13:46 | 44.82922 | 3.71504 | 37973 ft | 507 kts | 61° |
| 2026-05-07 13:46 | 44.86273 | 3.80015 | 37984 ft | 507 kts | 62° |
| 2026-05-07 13:47 | 44.89704 | 3.88751 | 37973 ft | 507 kts | 61° |
| 2026-05-07 13:47 | 44.93038 | 3.97266 | 37993 ft | 507 kts | 61° |
| 2026-05-07 13:48 | 44.96433 | 4.05962 | 37981 ft | 507 kts | 61° |
| 2026-05-07 13:48 | 44.99833 | 4.14700 | 37983 ft | 507 kts | 62° |
| 2026-05-07 13:49 | 45.03205 | 4.23389 | 37975 ft | 508 kts | 61° |
| 2026-05-07 13:49 | 45.06589 | 4.32131 | 37978 ft | 508 kts | 62° |
| 2026-05-07 13:50 | 45.09722 | 4.40246 | 37982 ft | 508 kts | 62° |
| 2026-05-07 13:50 | 45.13203 | 4.49291 | 37988 ft | 509 kts | 61° |
| 2026-05-07 13:51 | 45.16596 | 4.58135 | 37990 ft | 509 kts | 62° |
| 2026-05-07 13:51 | 45.19963 | 4.66940 | 37979 ft | 509 kts | 61° |
| 2026-05-07 13:52 | 45.23322 | 4.75762 | 37985 ft | 509 kts | 62° |
| 2026-05-07 13:52 | 45.26655 | 4.84546 | 37991 ft | 508 kts | 62° |
| 2026-05-07 13:53 | 45.29788 | 4.92828 | 37998 ft | 509 kts | 62° |
| 2026-05-07 13:53 | 45.33144 | 5.01725 | 37993 ft | 509 kts | 62° |
| 2026-05-07 13:54 | 45.36329 | 5.10197 | 37985 ft | 509 kts | 62° |
| 2026-05-07 13:54 | 45.39651 | 5.19063 | 37996 ft | 509 kts | 62° |
| 2026-05-07 13:55 | 45.42971 | 5.27950 | 37994 ft | 510 kts | 62° |
| 2026-05-07 13:55 | 45.46009 | 5.36105 | 38014 ft | 510 kts | 61° |
| 2026-05-07 13:56 | 45.49940 | 5.44467 | 38000 ft | 508 kts | 49° |
| 2026-05-07 13:56 | 45.54822 | 5.51687 | 37988 ft | 506 kts | 39° |
| 2026-05-07 13:57 | 45.59894 | 5.58022 | 37988 ft | 506 kts | 39° |
| 2026-05-07 13:57 | 45.64876 | 5.64294 | 38002 ft | 506 kts | 39° |
| 2026-05-07 13:58 | 45.70106 | 5.71001 | 38001 ft | 506 kts | 40° |
| 2026-05-07 13:58 | 45.75194 | 5.77543 | 37996 ft | 506 kts | 40° |
| 2026-05-07 13:59 | 45.79961 | 5.83668 | 37990 ft | 506 kts | 40° |
| 2026-05-07 13:59 | 45.85110 | 5.90303 | 37963 ft | 506 kts | 40° |
| 2026-05-07 14:00 | 45.90304 | 5.97013 | 37996 ft | 506 kts | 40° |
| 2026-05-07 14:00 | 45.95447 | 6.03677 | 37992 ft | 506 kts | 40° |
| 2026-05-07 14:01 | 46.00527 | 6.10279 | 37994 ft | 507 kts | 40° |
| 2026-05-07 14:01 | 46.05764 | 6.17100 | 37995 ft | 506 kts | 40° |
| 2026-05-07 14:02 | 46.10582 | 6.24415 | 37991 ft | 508 kts | 51° |
| 2026-05-07 14:02 | 46.14595 | 6.32583 | 37986 ft | 508 kts | 54° |
| 2026-05-07 14:03 | 46.18533 | 6.40833 | 37973 ft | 507 kts | 54° |
| 2026-05-07 14:03 | 46.22486 | 6.49039 | 37566 ft | 512 kts | 53° |
| 2026-05-07 14:03 | 46.24388 | 6.52963 | 37123 ft | 509 kts | 53° |
| 2026-05-07 14:04 | 46.26418 | 6.57148 | 36691 ft | 503 kts | 53° |
| 2026-05-07 14:04 | 46.28352 | 6.61139 | 36236 ft | 497 kts | 53° |
| 2026-05-07 14:04 | 46.30309 | 6.65185 | 35851 ft | 491 kts | 53° |
| 2026-05-07 14:04 | 46.32244 | 6.69196 | 35396 ft | 488 kts | 53° |
| 2026-05-07 14:05 | 46.33334 | 6.71454 | 35138 ft | 486 kts | 53° |
| 2026-05-07 14:05 | 46.35298 | 6.75526 | 34684 ft | 482 kts | 53° |
| 2026-05-07 14:05 | 46.37194 | 6.79465 | 34260 ft | 478 kts | 53° |
| 2026-05-07 14:05 | 46.39098 | 6.83430 | 33754 ft | 475 kts | 52° |
| 2026-05-07 14:06 | 46.40971 | 6.87336 | 33259 ft | 472 kts | 52° |
| 2026-05-07 14:06 | 46.42806 | 6.91169 | 32793 ft | 467 kts | 52° |
| 2026-05-07 14:06 | 46.44638 | 6.95000 | 32337 ft | 464 kts | 52° |
| 2026-05-07 14:06 | 46.46436 | 6.98765 | 31905 ft | 460 kts | 52° |
| 2026-05-07 14:07 | 46.48241 | 7.02549 | 31436 ft | 456 kts | 52° |
| 2026-05-07 14:07 | 46.50042 | 7.06331 | 31032 ft | 451 kts | 52° |
| 2026-05-07 14:07 | 46.51652 | 7.09714 | 30634 ft | 449 kts | 52° |
| 2026-05-07 14:07 | 46.53405 | 7.13404 | 30187 ft | 446 kts | 52° |
| 2026-05-07 14:08 | 46.55168 | 7.17117 | 29696 ft | 443 kts | 52° |
| 2026-05-07 14:08 | 46.56619 | 7.20140 | 29275 ft | 440 kts | 50° |
| 2026-05-07 14:08 | 46.58659 | 7.23729 | 28807 ft | 433 kts | 44° |
| 2026-05-07 14:08 | 46.60810 | 7.26782 | 28340 ft | 427 kts | 37° |
| 2026-05-07 14:09 | 46.62989 | 7.29499 | 27888 ft | 423 kts | 37° |
| 2026-05-07 14:09 | 46.65215 | 7.32252 | 27470 ft | 420 kts | 37° |
| 2026-05-07 14:09 | 46.67419 | 7.34989 | 27008 ft | 417 kts | 38° |
| 2026-05-07 14:09 | 46.69580 | 7.37699 | 26580 ft | 414 kts | 38° |
| 2026-05-07 14:10 | 46.71728 | 7.40412 | 26166 ft | 411 kts | 38° |
| 2026-05-07 14:10 | 46.73158 | 7.42221 | 25874 ft | 409 kts | 39° |
| 2026-05-07 14:10 | 46.75805 | 7.45575 | 25332 ft | 406 kts | 39° |
| 2026-05-07 14:10 | 46.77897 | 7.48280 | 24916 ft | 404 kts | 42° |
| 2026-05-07 14:11 | 46.79829 | 7.51280 | 24502 ft | 404 kts | 49° |
| 2026-05-07 14:11 | 46.81530 | 7.54395 | 24126 ft | 402 kts | 50° |
| 2026-05-07 14:11 | 46.83262 | 7.57624 | 23666 ft | 400 kts | 51° |
| 2026-05-07 14:11 | 46.84946 | 7.60768 | 23203 ft | 398 kts | 51° |
| 2026-05-07 14:12 | 46.86545 | 7.63741 | 22777 ft | 396 kts | 50° |
| 2026-05-07 14:12 | 46.88175 | 7.66765 | 22356 ft | 393 kts | 50° |
| 2026-05-07 14:12 | 46.89917 | 7.69987 | 21934 ft | 390 kts | 50° |
| 2026-05-07 14:12 | 46.91045 | 7.72072 | 21646 ft | 388 kts | 50° |
| 2026-05-07 14:13 | 46.93258 | 7.76163 | 21100 ft | 385 kts | 50° |
| 2026-05-07 14:13 | 46.94919 | 7.79237 | 20676 ft | 383 kts | 50° |
| 2026-05-07 14:13 | 46.96540 | 7.82238 | 20263 ft | 381 kts | 50° |
| 2026-05-07 14:13 | 46.98187 | 7.85293 | 19847 ft | 379 kts | 51° |
| 2026-05-07 14:14 | 46.99210 | 7.87193 | 19581 ft | 378 kts | 51° |
| 2026-05-07 14:14 | 47.00800 | 7.90146 | 19193 ft | 377 kts | 51° |
| 2026-05-07 14:14 | 47.02252 | 7.92848 | 18814 ft | 376 kts | 51° |
| 2026-05-07 14:14 | 47.03754 | 7.95643 | 18436 ft | 375 kts | 51° |
| 2026-05-07 14:15 | 47.05367 | 7.98649 | 17984 ft | 374 kts | 51° |
| 2026-05-07 14:15 | 47.06960 | 8.01612 | 17531 ft | 372 kts | 50° |
| 2026-05-07 14:15 | 47.08716 | 8.04384 | 17118 ft | 369 kts | 42° |
| 2026-05-07 14:15 | 47.10468 | 8.06724 | 16735 ft | 367 kts | 41° |
| 2026-05-07 14:16 | 47.12342 | 8.09218 | 16320 ft | 365 kts | 41° |
| 2026-05-07 14:16 | 47.14196 | 8.11758 | 15903 ft | 364 kts | 42° |
| 2026-05-07 14:16 | 47.15872 | 8.14095 | 15531 ft | 362 kts | 43° |
| 2026-05-07 14:16 | 47.17699 | 8.16669 | 15125 ft | 361 kts | 43° |
| 2026-05-07 14:17 | 47.19496 | 8.19206 | 14712 ft | 361 kts | 43° |
| 2026-05-07 14:17 | 47.21290 | 8.21285 | 14317 ft | 351 kts | 26° |
| 2026-05-07 14:17 | 47.23587 | 8.22313 | 13958 ft | 347 kts | 2° |
| 2026-05-07 14:17 | 47.26006 | 8.22115 | 13539 ft | 346 kts | 346° |
| 2026-05-07 14:18 | 47.28242 | 8.20941 | 13090 ft | 343 kts | 331° |
| 2026-05-07 14:18 | 47.30368 | 8.19335 | 12674 ft | 340 kts | 329° |
| 2026-05-07 14:18 | 47.32442 | 8.17729 | 12284 ft | 338 kts | 329° |
| 2026-05-07 14:18 | 47.34529 | 8.16119 | 11890 ft | 337 kts | 330° |
| 2026-05-07 14:19 | 47.36592 | 8.14547 | 11494 ft | 335 kts | 330° |
| 2026-05-07 14:19 | 47.38409 | 8.13174 | 11163 ft | 334 kts | 330° |
| 2026-05-07 14:19 | 47.40401 | 8.11677 | 10777 ft | 334 kts | 330° |
| 2026-05-07 14:19 | 47.42483 | 8.10118 | 10402 ft | 333 kts | 330° |
| 2026-05-07 14:20 | 47.44479 | 8.08623 | 10237 ft | 325 kts | 330° |
| 2026-05-07 14:20 | 47.46481 | 8.07123 | 10079 ft | 316 kts | 330° |
| 2026-05-07 14:20 | 47.48432 | 8.05701 | 9862 ft | 308 kts | 335° |
| 2026-05-07 14:20 | 47.50501 | 8.05145 | 9629 ft | 307 kts | 1° |
| 2026-05-07 14:21 | 47.52560 | 8.05922 | 9453 ft | 301 kts | 24° |
| 2026-05-07 14:21 | 47.54327 | 8.07453 | 8930 ft | 290 kts | 31° |
| 2026-05-07 14:21 | 47.55914 | 8.08959 | 8503 ft | 283 kts | 31° |
| 2026-05-07 14:21 | 47.57557 | 8.10500 | 8173 ft | 283 kts | 31° |
| 2026-05-07 14:22 | 47.59236 | 8.12058 | 7827 ft | 283 kts | 30° |
| 2026-05-07 14:22 | 47.60821 | 8.13522 | 7528 ft | 283 kts | 30° |
| 2026-05-07 14:22 | 47.62428 | 8.15152 | 7183 ft | 281 kts | 40° |
| 2026-05-07 14:22 | 47.63811 | 8.17245 | 6863 ft | 282 kts | 46° |
| 2026-05-07 14:23 | 47.65112 | 8.19403 | 6535 ft | 282 kts | 46° |
| 2026-05-07 14:23 | 47.66374 | 8.21574 | 6163 ft | 270 kts | 56° |
| 2026-05-07 14:23 | 47.66958 | 8.24053 | 6017 ft | 248 kts | 89° |
| 2026-05-07 14:23 | 47.66623 | 8.26386 | 5794 ft | 224 kts | 122° |
| 2026-05-07 14:24 | 47.65796 | 8.28273 | 5632 ft | 219 kts | 127° |
| 2026-05-07 14:24 | 47.64856 | 8.30093 | 5461 ft | 222 kts | 131° |
| 2026-05-07 14:24 | 47.63887 | 8.31822 | 5201 ft | 219 kts | 134° |
| 2026-05-07 14:24 | 47.62853 | 8.33458 | 4949 ft | 214 kts | 137° |
| 2026-05-07 14:25 | 47.61800 | 8.34954 | 4734 ft | 206 kts | 139° |
| 2026-05-07 14:25 | 47.60771 | 8.36377 | 4506 ft | 199 kts | 140° |
| 2026-05-07 14:25 | 47.59781 | 8.37736 | 4309 ft | 195 kts | 140° |
| 2026-05-07 14:25 | 47.58803 | 8.39076 | 4143 ft | 189 kts | 139° |
| 2026-05-07 14:26 | 47.57876 | 8.40349 | 4027 ft | 182 kts | 138° |
| 2026-05-07 14:26 | 47.56915 | 8.41665 | 3790 ft | 189 kts | 139° |
| 2026-05-07 14:26 | 47.55963 | 8.42979 | 3549 ft | 181 kts | 139° |
| 2026-05-07 14:26 | 47.55081 | 8.44191 | 3287 ft | 168 kts | 138° |
| 2026-05-07 14:27 | 47.54276 | 8.45291 | 3072 ft | 160 kts | 139° |
| 2026-05-07 14:27 | 47.53460 | 8.46406 | 2882 ft | 162 kts | 139° |
| 2026-05-07 14:27 | 47.52637 | 8.47538 | 2678 ft | 159 kts | 139° |
| 2026-05-07 14:27 | 47.51844 | 8.48623 | 2457 ft | 155 kts | 140° |
| 2026-05-07 14:28 | 47.51046 | 8.49724 | 2181 ft | 156 kts | 139° |
| 2026-05-07 14:28 | 47.50254 | 8.50804 | 2008 ft | 161 kts | 139° |
| 2026-05-07 14:28 | 47.49403 | 8.51970 | 1777 ft | 168 kts | 138° |
| 2026-05-07 14:28 | 47.48574 | 8.53102 | 1538 ft | 159 kts | 137° |
| 2026-05-07 14:29 | 47.47786 | 8.54182 | 1414 ft | 144 kts | 137° |
| 2026-05-07 14:29 | 47.47162 | 8.55039 | 1415 ft | 100 kts | 137° |
| 2026-05-07 14:29 | 47.46798 | 8.55535 | 1418 ft | 52 kts | 138° |
| 2026-05-07 14:29 | 47.46568 | 8.55693 | 1411 ft | 32 kts | 168° |
| 2026-05-07 14:30 | 47.46364 | 8.55791 | 1411 ft | 30 kts | 141° |
| 2026-05-07 14:30 | 47.46274 | 8.55882 | 1411 ft | 15 kts | 179° |
| 2026-05-07 14:30 | 47.46234 | 8.55767 | 1404 ft | 15 kts | 278° |
| 2026-05-07 14:30 | 47.46248 | 8.55616 | 1405 ft | 15 kts | 277° |
| 2026-05-07 14:31 | 47.46259 | 8.55466 | 1407 ft | 15 kts | 275° |
| 2026-05-07 14:31 | 47.46227 | 8.55386 | 1405 ft | 8 kts | 182° |
| 2026-05-07 14:31 | 47.46186 | 8.55392 | 1407 ft | 0 kts | 181° |